Charlevoix, MI

12:57 AM EST on December 21, 2014 (GMT -0500)
Harbor Springs | Change Station
CLOSE
Current Station
Airport
Location: Harbor Springs,
Elevation: 686 ft
Nearby Weather Stations

Elev 686 ft 45.43 °N, 84.91 °W | Updated 22 minutes ago

Overcast
Overcast
23 °F
Feels Like 23 °F
N
0
Wind Variable Wind from North

Today
High -- | Low -- °F
--% Chance of Precip.
Yesterday
High -- | Low -- °F
Precip. -- in
8:17 AM 5:01 PM
Waning Crescent, 1% visible
Pressure 30.24 in
Visibility 10.0 miles
Clouds Overcast 3400 ft
Dew Point 19 °F
Humidity 86%
Rainfall 0.00 in
Snow Depth Not available.
UV 0 out of 12
Pollen .10 out of 12
Air Quality Not available.
Flu Activity Not available.
METAR KMGN 210535Z AUTO 00000KT 10SM OVC034 M05/M07 A3024 RMK AO2 T10501070

More Conditions Fewer Conditions

Pressure 30.24 in
Visibility 10.0 miles
Clouds Overcast 3400 ft
Dew Point 19 °F
Humidity 86%
Rainfall 0.00 in
Snow Depth Not available.
UV 0 out of 12
Pollen .10 out of 12
Air Quality Not available.
Flu Activity Not available.
METAR KMGN 210535Z AUTO 00000KT 10SM OVC034 M05/M07 A3024 RMK AO2 T10501070

More Conditions Fewer Conditions

Nowcast | as of 12:00 am EST on December 21, 2014

At 1 am...cloudy. Temperature 28. Light winds. At 3 am...mostly cloudy. Temperature 28. Light winds. At 7 am...partly cloudy. Temperature 29. South winds 6 mph.

×

10-Day Weather Forecast

Almanac

Astronomy

Dec. 21, 2014 Rise Set
Actual Time
Civil Twilight
Nautical Twilight
Astronomical Twilight
Moon
Length of Visible Light
Length of Day
Tomorrow will be .
, % of the Moon is Illuminated

Today's Extremes

State Highs State Lows

Community

WunderPhotos

Upload Photos

1,779,359 photos uploaded!

WunderBlogs® & News

Nearby

Air Quality

  Air Quality AQ Index Pollutant
Not available.

Snow Depth

Station Depth Elevation

Earthquake Activity

City Distance Mag. Time & Date
Minimum magnitude displayed is 2.5.

Coastal Water Temperatures

Place Temperature

Nearby Weather Stations